sensor_id;sensor_type;location;lat;lon;timestamp;P1;durP1;ratioP1;P2;durP2;ratioP2
49458;SDS011;35354;51.296;16.924;2023-03-26T00:01:25;43.58;;;25.90;;
49458;SDS011;35354;51.296;16.924;2023-03-26T00:03:53;38.53;;;21.13;;
49458;SDS011;35354;51.296;16.924;2023-03-26T00:06:22;38.83;;;22.85;;
49458;SDS011;35354;51.296;16.924;2023-03-26T00:08:50;27.27;;;16.08;;
49458;SDS011;35354;51.296;16.924;2023-03-26T00:11:17;20.02;;;12.40;;
49458;SDS011;35354;51.296;16.924;2023-03-26T00:13:43;13.43;;;8.75;;
49458;SDS011;35354;51.296;16.924;2023-03-26T00:16:11;9.85;;;5.38;;
49458;SDS011;35354;51.296;16.924;2023-03-26T00:18:37;10.23;;;6.43;;
49458;SDS011;35354;51.296;16.924;2023-03-26T00:21:05;7.20;;;4.05;;
49458;SDS011;35354;51.296;16.924;2023-03-26T00:23:32;5.45;;;3.15;;
49458;SDS011;35354;51.296;16.924;2023-03-26T00:25:59;5.07;;;2.88;;
49458;SDS011;35354;51.296;16.924;2023-03-26T00:28:25;5.22;;;3.03;;
49458;SDS011;35354;51.296;16.924;2023-03-26T00:30:58;6.20;;;2.80;;
49458;SDS011;35354;51.296;16.924;2023-03-26T00:33:25;4.93;;;2.58;;
49458;SDS011;35354;51.296;16.924;2023-03-26T00:35:52;5.13;;;2.30;;
49458;SDS011;35354;51.296;16.924;2023-03-26T00:38:19;4.32;;;2.08;;
49458;SDS011;35354;51.296;16.924;2023-03-26T00:40:46;5.65;;;2.85;;
49458;SDS011;35354;51.296;16.924;2023-03-26T00:43:15;3.50;;;1.88;;
49458;SDS011;35354;51.296;16.924;2023-03-26T00:45:47;5.80;;;2.20;;
49458;SDS011;35354;51.296;16.924;2023-03-26T00:48:18;4.07;;;1.90;;
49458;SDS011;35354;51.296;16.924;2023-03-26T00:50:45;4.97;;;2.30;;
49458;SDS011;35354;51.296;16.924;2023-03-26T00:53:12;4.80;;;2.22;;
49458;SDS011;35354;51.296;16.924;2023-03-26T00:55:41;5.43;;;2.13;;
49458;SDS011;35354;51.296;16.924;2023-03-26T00:58:09;5.88;;;2.10;;
49458;SDS011;35354;51.296;16.924;2023-03-26T01:00:35;4.03;;;2.40;;
49458;SDS011;35354;51.296;16.924;2023-03-26T01:03:28;7.03;;;2.60;;
49458;SDS011;35354;51.296;16.924;2023-03-26T01:08:39;5.70;;;2.63;;
49458;SDS011;35354;51.296;16.924;2023-03-26T01:11:26;5.88;;;3.00;;
49458;SDS011;35354;51.296;16.924;2023-03-26T01:14:13;5.55;;;2.40;;
49458;SDS011;35354;51.296;16.924;2023-03-26T01:16:45;4.57;;;2.47;;
49458;SDS011;35354;51.296;16.924;2023-03-26T01:21:53;4.03;;;2.58;;
49458;SDS011;35354;51.296;16.924;2023-03-26T01:24:19;4.60;;;2.92;;
49458;SDS011;35354;51.296;16.924;2023-03-26T01:29:20;5.20;;;2.33;;
49458;SDS011;35354;51.296;16.924;2023-03-26T01:37:21;4.05;;;2.50;;
49458;SDS011;35354;51.296;16.924;2023-03-26T01:39:55;3.67;;;2.30;;
49458;SDS011;35354;51.296;16.924;2023-03-26T01:42:32;4.63;;;2.70;;
49458;SDS011;35354;51.296;16.924;2023-03-26T01:45:09;4.57;;;2.50;;
49458;SDS011;35354;51.296;16.924;2023-03-26T01:47:39;3.30;;;2.50;;
49458;SDS011;35354;51.296;16.924;2023-03-26T01:50:06;4.72;;;2.92;;
49458;SDS011;35354;51.296;16.924;2023-03-26T01:52:32;4.43;;;2.58;;
49458;SDS011;35354;51.296;16.924;2023-03-26T01:54:57;4.63;;;2.90;;
49458;SDS011;35354;51.296;16.924;2023-03-26T02:00:24;4.30;;;2.75;;
49458;SDS011;35354;51.296;16.924;2023-03-26T02:02:57;4.65;;;2.50;;
49458;SDS011;35354;51.296;16.924;2023-03-26T02:07:59;6.18;;;2.33;;
49458;SDS011;35354;51.296;16.924;2023-03-26T02:10:37;3.75;;;2.33;;
49458;SDS011;35354;51.296;16.924;2023-03-26T02:13:06;4.33;;;1.90;;
49458;SDS011;35354;51.296;16.924;2023-03-26T02:15:32;3.15;;;2.13;;
49458;SDS011;35354;51.296;16.924;2023-03-26T02:17:57;5.28;;;2.15;;
49458;SDS011;35354;51.296;16.924;2023-03-26T02:20:23;3.35;;;2.03;;
49458;SDS011;35354;51.296;16.924;2023-03-26T02:22:54;4.88;;;2.08;;
49458;SDS011;35354;51.296;16.924;2023-03-26T02:25:20;3.40;;;2.03;;
49458;SDS011;35354;51.296;16.924;2023-03-26T02:27:46;5.72;;;2.58;;
49458;SDS011;35354;51.296;16.924;2023-03-26T02:30:14;5.13;;;2.95;;
49458;SDS011;35354;51.296;16.924;2023-03-26T02:32:42;7.15;;;2.80;;
49458;SDS011;35354;51.296;16.924;2023-03-26T02:35:08;11.80;;;5.07;;
49458;SDS011;35354;51.296;16.924;2023-03-26T02:37:35;16.50;;;6.40;;
49458;SDS011;35354;51.296;16.924;2023-03-26T02:40:00;18.73;;;8.13;;
49458;SDS011;35354;51.296;16.924;2023-03-26T02:42:28;11.77;;;5.80;;
49458;SDS011;35354;51.296;16.924;2023-03-26T02:44:53;11.43;;;5.13;;
49458;SDS011;35354;51.296;16.924;2023-03-26T02:47:19;6.70;;;2.90;;
49458;SDS011;35354;51.296;16.924;2023-03-26T02:49:44;11.82;;;4.60;;
49458;SDS011;35354;51.296;16.924;2023-03-26T02:52:09;7.78;;;3.80;;
49458;SDS011;35354;51.296;16.924;2023-03-26T02:54:35;7.38;;;3.33;;
49458;SDS011;35354;51.296;16.924;2023-03-26T02:57:00;8.40;;;3.63;;
49458;SDS011;35354;51.296;16.924;2023-03-26T02:59:26;9.68;;;3.80;;
49458;SDS011;35354;51.296;16.924;2023-03-26T03:01:51;9.85;;;4.63;;
49458;SDS011;35354;51.296;16.924;2023-03-26T03:04:17;11.07;;;4.50;;
49458;SDS011;35354;51.296;16.924;2023-03-26T03:06:42;11.95;;;6.32;;
49458;SDS011;35354;51.296;16.924;2023-03-26T03:09:09;13.60;;;4.75;;
49458;SDS011;35354;51.296;16.924;2023-03-26T03:11:36;15.32;;;6.43;;
49458;SDS011;35354;51.296;16.924;2023-03-26T03:14:02;10.57;;;5.05;;
49458;SDS011;35354;51.296;16.924;2023-03-26T03:16:28;5.95;;;3.00;;
49458;SDS011;35354;51.296;16.924;2023-03-26T03:18:53;6.00;;;3.38;;
49458;SDS011;35354;51.296;16.924;2023-03-26T03:21:20;8.50;;;4.80;;
49458;SDS011;35354;51.296;16.924;2023-03-26T03:23:46;7.20;;;4.68;;
49458;SDS011;35354;51.296;16.924;2023-03-26T03:26:12;7.85;;;3.85;;
49458;SDS011;35354;51.296;16.924;2023-03-26T03:28:39;6.00;;;2.97;;
49458;SDS011;35354;51.296;16.924;2023-03-26T03:31:05;4.10;;;2.20;;
49458;SDS011;35354;51.296;16.924;2023-03-26T03:33:32;5.35;;;2.55;;
49458;SDS011;35354;51.296;16.924;2023-03-26T03:35:58;4.03;;;2.25;;
49458;SDS011;35354;51.296;16.924;2023-03-26T03:38:23;6.07;;;2.50;;
49458;SDS011;35354;51.296;16.924;2023-03-26T03:40:51;6.07;;;3.35;;
49458;SDS011;35354;51.296;16.924;2023-03-26T03:43:18;6.43;;;3.72;;
49458;SDS011;35354;51.296;16.924;2023-03-26T03:45:43;4.10;;;2.47;;
49458;SDS011;35354;51.296;16.924;2023-03-26T03:48:09;7.70;;;2.58;;
49458;SDS011;35354;51.296;16.924;2023-03-26T03:50:34;4.40;;;2.83;;
49458;SDS011;35354;51.296;16.924;2023-03-26T03:53:00;4.80;;;2.42;;
49458;SDS011;35354;51.296;16.924;2023-03-26T03:55:26;5.90;;;2.80;;
49458;SDS011;35354;51.296;16.924;2023-03-26T03:57:52;4.68;;;3.28;;
49458;SDS011;35354;51.296;16.924;2023-03-26T04:00:18;5.35;;;3.42;;
49458;SDS011;35354;51.296;16.924;2023-03-26T04:02:44;4.38;;;2.90;;
49458;SDS011;35354;51.296;16.924;2023-03-26T04:05:10;4.43;;;3.15;;
49458;SDS011;35354;51.296;16.924;2023-03-26T04:07:36;6.05;;;3.13;;
49458;SDS011;35354;51.296;16.924;2023-03-26T04:10:01;4.63;;;3.00;;
49458;SDS011;35354;51.296;16.924;2023-03-26T04:12:28;6.38;;;3.42;;
49458;SDS011;35354;51.296;16.924;2023-03-26T04:14:54;7.07;;;3.05;;
49458;SDS011;35354;51.296;16.924;2023-03-26T04:17:20;6.68;;;3.13;;
49458;SDS011;35354;51.296;16.924;2023-03-26T04:19:46;6.13;;;3.05;;
49458;SDS011;35354;51.296;16.924;2023-03-26T04:22:12;5.05;;;2.67;;
49458;SDS011;35354;51.296;16.924;2023-03-26T04:24:38;7.22;;;3.00;;
49458;SDS011;35354;51.296;16.924;2023-03-26T04:27:04;5.65;;;2.40;;
49458;SDS011;35354;51.296;16.924;2023-03-26T04:29:33;3.53;;;2.50;;
49458;SDS011;35354;51.296;16.924;2023-03-26T04:32:07;3.13;;;1.90;;
49458;SDS011;35354;51.296;16.924;2023-03-26T04:34:43;4.30;;;2.40;;
49458;SDS011;35354;51.296;16.924;2023-03-26T04:37:11;4.53;;;2.47;;
49458;SDS011;35354;51.296;16.924;2023-03-26T04:39:42;3.38;;;2.50;;
49458;SDS011;35354;51.296;16.924;2023-03-26T04:42:08;6.70;;;2.63;;
49458;SDS011;35354;51.296;16.924;2023-03-26T04:44:35;7.80;;;2.22;;
49458;SDS011;35354;51.296;16.924;2023-03-26T04:47:00;5.93;;;2.75;;
49458;SDS011;35354;51.296;16.924;2023-03-26T04:49:25;3.92;;;2.30;;
49458;SDS011;35354;51.296;16.924;2023-03-26T04:51:51;6.43;;;2.80;;
49458;SDS011;35354;51.296;16.924;2023-03-26T04:54:16;3.70;;;2.10;;
49458;SDS011;35354;51.296;16.924;2023-03-26T04:59:27;2.65;;;2.03;;
49458;SDS011;35354;51.296;16.924;2023-03-26T05:01:57;3.90;;;2.00;;
49458;SDS011;35354;51.296;16.924;2023-03-26T05:04:24;4.78;;;2.10;;
49458;SDS011;35354;51.296;16.924;2023-03-26T05:06:50;3.17;;;2.10;;
49458;SDS011;35354;51.296;16.924;2023-03-26T05:09:16;3.03;;;1.80;;
49458;SDS011;35354;51.296;16.924;2023-03-26T05:11:43;5.85;;;2.10;;
49458;SDS011;35354;51.296;16.924;2023-03-26T05:14:09;4.05;;;2.00;;
49458;SDS011;35354;51.296;16.924;2023-03-26T05:16:34;3.38;;;1.90;;
49458;SDS011;35354;51.296;16.924;2023-03-26T05:19:00;4.00;;;1.80;;
49458;SDS011;35354;51.296;16.924;2023-03-26T05:21:25;3.00;;;2.05;;
49458;SDS011;35354;51.296;16.924;2023-03-26T05:23:51;4.90;;;1.83;;
49458;SDS011;35354;51.296;16.924;2023-03-26T05:26:16;3.08;;;2.03;;
49458;SDS011;35354;51.296;16.924;2023-03-26T05:28:42;3.05;;;1.88;;
49458;SDS011;35354;51.296;16.924;2023-03-26T05:31:08;4.43;;;1.98;;
49458;SDS011;35354;51.296;16.924;2023-03-26T05:33:34;3.05;;;2.22;;
49458;SDS011;35354;51.296;16.924;2023-03-26T05:36:01;3.45;;;1.73;;
49458;SDS011;35354;51.296;16.924;2023-03-26T05:38:29;3.50;;;1.70;;
49458;SDS011;35354;51.296;16.924;2023-03-26T05:40:59;3.10;;;1.83;;
49458;SDS011;35354;51.296;16.924;2023-03-26T05:43:25;4.45;;;2.08;;
49458;SDS011;35354;51.296;16.924;2023-03-26T05:45:51;4.80;;;2.22;;
49458;SDS011;35354;51.296;16.924;2023-03-26T05:48:17;2.88;;;2.08;;
49458;SDS011;35354;51.296;16.924;2023-03-26T05:50:42;4.63;;;2.10;;
49458;SDS011;35354;51.296;16.924;2023-03-26T05:53:08;3.13;;;2.13;;
49458;SDS011;35354;51.296;16.924;2023-03-26T05:55:33;4.53;;;1.98;;
49458;SDS011;35354;51.296;16.924;2023-03-26T05:57:58;4.57;;;2.22;;
49458;SDS011;35354;51.296;16.924;2023-03-26T06:00:24;2.50;;;2.10;;
49458;SDS011;35354;51.296;16.924;2023-03-26T06:02:51;3.67;;;2.30;;
49458;SDS011;35354;51.296;16.924;2023-03-26T06:05:18;2.75;;;2.00;;
49458;SDS011;35354;51.296;16.924;2023-03-26T06:07:44;5.20;;;2.40;;
49458;SDS011;35354;51.296;16.924;2023-03-26T06:10:09;4.70;;;2.33;;
49458;SDS011;35354;51.296;16.924;2023-03-26T06:12:35;4.55;;;2.63;;
49458;SDS011;35354;51.296;16.924;2023-03-26T06:15:00;5.30;;;2.28;;
49458;SDS011;35354;51.296;16.924;2023-03-26T06:17:26;5.75;;;1.80;;
49458;SDS011;35354;51.296;16.924;2023-03-26T06:19:51;4.00;;;1.95;;
49458;SDS011;35354;51.296;16.924;2023-03-26T06:22:16;2.45;;;2.10;;
49458;SDS011;35354;51.296;16.924;2023-03-26T06:24:41;3.97;;;2.13;;
49458;SDS011;35354;51.296;16.924;2023-03-26T06:27:07;3.75;;;2.03;;
49458;SDS011;35354;51.296;16.924;2023-03-26T06:29:32;4.18;;;2.00;;
49458;SDS011;35354;51.296;16.924;2023-03-26T06:31:57;2.88;;;1.80;;
49458;SDS011;35354;51.296;16.924;2023-03-26T06:34:23;3.90;;;2.47;;
49458;SDS011;35354;51.296;16.924;2023-03-26T06:36:48;3.75;;;2.10;;
49458;SDS011;35354;51.296;16.924;2023-03-26T06:39:16;2.38;;;1.90;;
49458;SDS011;35354;51.296;16.924;2023-03-26T06:41:41;4.72;;;2.25;;
49458;SDS011;35354;51.296;16.924;2023-03-26T06:44:07;3.65;;;2.20;;
49458;SDS011;35354;51.296;16.924;2023-03-26T06:46:32;2.83;;;2.15;;
49458;SDS011;35354;51.296;16.924;2023-03-26T06:48:57;2.88;;;2.05;;
49458;SDS011;35354;51.296;16.924;2023-03-26T06:51:23;3.50;;;2.20;;
49458;SDS011;35354;51.296;16.924;2023-03-26T06:53:49;2.28;;;2.00;;
49458;SDS011;35354;51.296;16.924;2023-03-26T06:56:14;4.95;;;2.45;;
49458;SDS011;35354;51.296;16.924;2023-03-26T06:58:39;5.93;;;2.58;;
49458;SDS011;35354;51.296;16.924;2023-03-26T07:01:05;3.55;;;2.20;;
49458;SDS011;35354;51.296;16.924;2023-03-26T07:03:30;4.00;;;2.70;;
49458;SDS011;35354;51.296;16.924;2023-03-26T07:05:55;3.80;;;2.17;;
49458;SDS011;35354;51.296;16.924;2023-03-26T07:08:21;2.70;;;2.50;;
49458;SDS011;35354;51.296;16.924;2023-03-26T07:10:46;4.93;;;2.67;;
49458;SDS011;35354;51.296;16.924;2023-03-26T07:13:11;4.13;;;1.98;;
49458;SDS011;35354;51.296;16.924;2023-03-26T07:15:37;4.55;;;2.35;;
49458;SDS011;35354;51.296;16.924;2023-03-26T07:18:02;4.15;;;2.30;;
49458;SDS011;35354;51.296;16.924;2023-03-26T07:20:28;3.63;;;2.35;;
49458;SDS011;35354;51.296;16.924;2023-03-26T07:22:54;4.03;;;2.30;;
49458;SDS011;35354;51.296;16.924;2023-03-26T07:25:19;4.72;;;2.60;;
49458;SDS011;35354;51.296;16.924;2023-03-26T07:30:37;3.83;;;3.08;;
49458;SDS011;35354;51.296;16.924;2023-03-26T07:33:26;4.28;;;3.28;;
49458;SDS011;35354;51.296;16.924;2023-03-26T07:38:44;4.95;;;2.53;;
49458;SDS011;35354;51.296;16.924;2023-03-26T07:41:23;5.78;;;2.75;;
49458;SDS011;35354;51.296;16.924;2023-03-26T07:46:34;2.00;;;1.80;;
49458;SDS011;35354;51.296;16.924;2023-03-26T07:49:01;3.22;;;2.05;;
49458;SDS011;35354;51.296;16.924;2023-03-26T07:51:28;3.22;;;2.10;;
49458;SDS011;35354;51.296;16.924;2023-03-26T07:53:54;4.88;;;1.95;;
49458;SDS011;35354;51.296;16.924;2023-03-26T07:56:44;2.95;;;2.10;;
49458;SDS011;35354;51.296;16.924;2023-03-26T08:02:41;2.00;;;1.90;;
49458;SDS011;35354;51.296;16.924;2023-03-26T08:05:21;3.42;;;2.28;;
49458;SDS011;35354;51.296;16.924;2023-03-26T08:10:37;4.97;;;2.80;;
49458;SDS011;35354;51.296;16.924;2023-03-26T08:13:19;2.97;;;2.67;;
49458;SDS011;35354;51.296;16.924;2023-03-26T08:21:54;3.85;;;2.58;;
49458;SDS011;35354;51.296;16.924;2023-03-26T08:32:32;3.67;;;2.72;;
49458;SDS011;35354;51.296;16.924;2023-03-26T08:34:58;5.25;;;3.35;;
49458;SDS011;35354;51.296;16.924;2023-03-26T08:37:24;21.05;;;19.25;;
49458;SDS011;35354;51.296;16.924;2023-03-26T08:39:51;4.90;;;3.42;;
49458;SDS011;35354;51.296;16.924;2023-03-26T08:56:07;3.28;;;1.98;;
49458;SDS011;35354;51.296;16.924;2023-03-26T09:04:04;3.53;;;1.65;;
49458;SDS011;35354;51.296;16.924;2023-03-26T09:15:33;3.47;;;1.20;;
49458;SDS011;35354;51.296;16.924;2023-03-26T09:27:01;3.42;;;1.80;;
49458;SDS011;35354;51.296;16.924;2023-03-26T09:30:03;4.20;;;1.77;;
49458;SDS011;35354;51.296;16.924;2023-03-26T09:41:06;2.10;;;1.90;;
49458;SDS011;35354;51.296;16.924;2023-03-26T09:58:03;3.38;;;2.03;;
49458;SDS011;35354;51.296;16.924;2023-03-26T10:00:40;2.15;;;1.95;;
49458;SDS011;35354;51.296;16.924;2023-03-26T10:03:28;3.58;;;2.25;;
49458;SDS011;35354;51.296;16.924;2023-03-26T10:08:50;5.15;;;2.00;;
49458;SDS011;35354;51.296;16.924;2023-03-26T10:19:53;4.40;;;2.15;;
49458;SDS011;35354;51.296;16.924;2023-03-26T10:22:25;3.50;;;1.90;;
49458;SDS011;35354;51.296;16.924;2023-03-26T10:25:13;3.00;;;2.00;;
49458;SDS011;35354;51.296;16.924;2023-03-26T10:27:51;3.33;;;2.15;;
49458;SDS011;35354;51.296;16.924;2023-03-26T10:30:47;2.20;;;1.70;;
49458;SDS011;35354;51.296;16.924;2023-03-26T10:41:48;2.17;;;1.60;;
49458;SDS011;35354;51.296;16.924;2023-03-26T10:52:46;3.15;;;2.67;;
49458;SDS011;35354;51.296;16.924;2023-03-26T10:55:18;3.00;;;2.00;;
49458;SDS011;35354;51.296;16.924;2023-03-26T10:57:52;3.80;;;2.53;;
49458;SDS011;35354;51.296;16.924;2023-03-26T11:00:21;3.85;;;2.08;;
49458;SDS011;35354;51.296;16.924;2023-03-26T11:05:23;3.78;;;1.77;;
49458;SDS011;35354;51.296;16.924;2023-03-26T11:07:51;4.88;;;3.30;;
49458;SDS011;35354;51.296;16.924;2023-03-26T11:13:14;3.65;;;2.00;;
49458;SDS011;35354;51.296;16.924;2023-03-26T11:16:03;3.35;;;1.90;;
49458;SDS011;35354;51.296;16.924;2023-03-26T11:24:06;2.83;;;2.47;;
49458;SDS011;35354;51.296;16.924;2023-03-26T11:29:12;5.00;;;3.78;;
49458;SDS011;35354;51.296;16.924;2023-03-26T11:34:14;5.45;;;3.63;;
49458;SDS011;35354;51.296;16.924;2023-03-26T11:36:49;4.18;;;2.90;;
49458;SDS011;35354;51.296;16.924;2023-03-26T11:39:22;7.13;;;4.25;;
49458;SDS011;35354;51.296;16.924;2023-03-26T11:41:51;7.22;;;4.85;;
49458;SDS011;35354;51.296;16.924;2023-03-26T11:44:27;4.38;;;2.78;;
49458;SDS011;35354;51.296;16.924;2023-03-26T11:46:59;3.05;;;2.50;;
49458;SDS011;35354;51.296;16.924;2023-03-26T11:49:29;13.90;;;9.27;;
49458;SDS011;35354;51.296;16.924;2023-03-26T11:51:56;3.40;;;2.90;;
49458;SDS011;35354;51.296;16.924;2023-03-26T11:54:23;4.40;;;2.90;;
49458;SDS011;35354;51.296;16.924;2023-03-26T11:56:50;4.65;;;2.92;;
49458;SDS011;35354;51.296;16.924;2023-03-26T12:04:44;4.43;;;3.85;;
49458;SDS011;35354;51.296;16.924;2023-03-26T12:07:15;5.72;;;2.90;;
49458;SDS011;35354;51.296;16.924;2023-03-26T12:09:48;5.93;;;4.20;;
49458;SDS011;35354;51.296;16.924;2023-03-26T12:12:17;13.50;;;9.80;;
49458;SDS011;35354;51.296;16.924;2023-03-26T12:14:43;4.35;;;3.95;;
49458;SDS011;35354;51.296;16.924;2023-03-26T12:17:12;5.75;;;3.60;;
49458;SDS011;35354;51.296;16.924;2023-03-26T12:19:48;4.88;;;2.75;;
49458;SDS011;35354;51.296;16.924;2023-03-26T12:22:27;3.38;;;2.60;;
49458;SDS011;35354;51.296;16.924;2023-03-26T12:25:22;4.22;;;2.50;;
49458;SDS011;35354;51.296;16.924;2023-03-26T12:30:30;3.08;;;1.90;;
49458;SDS011;35354;51.296;16.924;2023-03-26T12:33:05;3.55;;;2.05;;
49458;SDS011;35354;51.296;16.924;2023-03-26T12:35:38;2.15;;;1.60;;
49458;SDS011;35354;51.296;16.924;2023-03-26T12:41:04;1.92;;;1.15;;
49458;SDS011;35354;51.296;16.924;2023-03-26T12:43:38;2.22;;;1.48;;
49458;SDS011;35354;51.296;16.924;2023-03-26T12:48:54;3.05;;;2.33;;
49458;SDS011;35354;51.296;16.924;2023-03-26T12:51:27;2.03;;;1.85;;
49458;SDS011;35354;51.296;16.924;2023-03-26T12:56:44;1.85;;;1.50;;
49458;SDS011;35354;51.296;16.924;2023-03-26T12:59:24;5.57;;;2.10;;
49458;SDS011;35354;51.296;16.924;2023-03-26T13:04:48;3.15;;;1.50;;
49458;SDS011;35354;51.296;16.924;2023-03-26T13:07:24;3.00;;;1.90;;
49458;SDS011;35354;51.296;16.924;2023-03-26T13:10:14;4.10;;;2.00;;
49458;SDS011;35354;51.296;16.924;2023-03-26T13:19:22;9.35;;;4.95;;
49458;SDS011;35354;51.296;16.924;2023-03-26T13:21:58;5.72;;;3.42;;
49458;SDS011;35354;51.296;16.924;2023-03-26T13:24:37;6.97;;;3.58;;
49458;SDS011;35354;51.296;16.924;2023-03-26T13:30:21;3.72;;;2.95;;
49458;SDS011;35354;51.296;16.924;2023-03-26T13:35:36;3.92;;;2.50;;
49458;SDS011;35354;51.296;16.924;2023-03-26T13:38:15;5.93;;;3.55;;
49458;SDS011;35354;51.296;16.924;2023-03-26T13:48:48;4.75;;;1.95;;
49458;SDS011;35354;51.296;16.924;2023-03-26T13:51:23;3.05;;;1.40;;
49458;SDS011;35354;51.296;16.924;2023-03-26T13:56:41;3.88;;;3.15;;
49458;SDS011;35354;51.296;16.924;2023-03-26T13:59:13;3.40;;;2.42;;
49458;SDS011;35354;51.296;16.924;2023-03-26T14:01:54;5.38;;;2.63;;
49458;SDS011;35354;51.296;16.924;2023-03-26T14:04:30;2.97;;;2.28;;
49458;SDS011;35354;51.296;16.924;2023-03-26T14:07:08;8.90;;;5.38;;
49458;SDS011;35354;51.296;16.924;2023-03-26T14:10:00;5.80;;;4.22;;
49458;SDS011;35354;51.296;16.924;2023-03-26T14:15:46;8.02;;;3.70;;
49458;SDS011;35354;51.296;16.924;2023-03-26T14:21:12;2.92;;;1.83;;
49458;SDS011;35354;51.296;16.924;2023-03-26T14:23:57;6.18;;;2.40;;
49458;SDS011;35354;51.296;16.924;2023-03-26T14:29:58;4.72;;;3.50;;
49458;SDS011;35354;51.296;16.924;2023-03-26T14:32:49;7.28;;;4.43;;
49458;SDS011;35354;51.296;16.924;2023-03-26T14:35:34;7.93;;;6.75;;
49458;SDS011;35354;51.296;16.924;2023-03-26T14:40:56;4.15;;;3.20;;
49458;SDS011;35354;51.296;16.924;2023-03-26T14:55:11;4.20;;;3.08;;
49458;SDS011;35354;51.296;16.924;2023-03-26T15:14:16;5.75;;;3.95;;
49458;SDS011;35354;51.296;16.924;2023-03-26T15:22:42;4.03;;;2.65;;
49458;SDS011;35354;51.296;16.924;2023-03-26T15:31:08;12.23;;;8.13;;
49458;SDS011;35354;51.296;16.924;2023-03-26T15:34:14;10.57;;;8.52;;
49458;SDS011;35354;51.296;16.924;2023-03-26T15:37:02;9.63;;;5.90;;
49458;SDS011;35354;51.296;16.924;2023-03-26T15:42:20;7.32;;;5.63;;
49458;SDS011;35354;51.296;16.924;2023-03-26T15:50:45;11.30;;;9.10;;
49458;SDS011;35354;51.296;16.924;2023-03-26T16:04:51;16.17;;;12.70;;
49458;SDS011;35354;51.296;16.924;2023-03-26T16:13:26;24.50;;;15.13;;
49458;SDS011;35354;51.296;16.924;2023-03-26T16:21:01;20.05;;;11.88;;
49458;SDS011;35354;51.296;16.924;2023-03-26T16:23:51;20.60;;;18.50;;
49458;SDS011;35354;51.296;16.924;2023-03-26T16:26:26;16.80;;;15.10;;
49458;SDS011;35354;51.296;16.924;2023-03-26T16:34:56;12.85;;;8.55;;
49458;SDS011;35354;51.296;16.924;2023-03-26T16:50:55;15.10;;;12.20;;
49458;SDS011;35354;51.296;16.924;2023-03-26T16:53:37;18.90;;;15.63;;
49458;SDS011;35354;51.296;16.924;2023-03-26T16:58:52;12.95;;;11.10;;
49458;SDS011;35354;51.296;16.924;2023-03-26T17:09:27;12.85;;;11.45;;
49458;SDS011;35354;51.296;16.924;2023-03-26T17:12:27;17.95;;;13.50;;
49458;SDS011;35354;51.296;16.924;2023-03-26T17:15:00;25.23;;;16.42;;
49458;SDS011;35354;51.296;16.924;2023-03-26T17:17:38;21.85;;;14.30;;
49458;SDS011;35354;51.296;16.924;2023-03-26T17:26:03;21.80;;;16.70;;
49458;SDS011;35354;51.296;16.924;2023-03-26T17:28:22;15.27;;;11.98;;
49458;SDS011;35354;51.296;16.924;2023-03-26T17:31:04;8.52;;;7.13;;
49458;SDS011;35354;51.296;16.924;2023-03-26T17:33:47;6.72;;;5.75;;
49458;SDS011;35354;51.296;16.924;2023-03-26T17:36:19;7.20;;;5.85;;
49458;SDS011;35354;51.296;16.924;2023-03-26T17:38:55;8.52;;;4.97;;
49458;SDS011;35354;51.296;16.924;2023-03-26T17:47:04;11.07;;;7.55;;
49458;SDS011;35354;51.296;16.924;2023-03-26T17:49:48;12.95;;;6.78;;
49458;SDS011;35354;51.296;16.924;2023-03-26T17:52:28;8.50;;;5.78;;
49458;SDS011;35354;51.296;16.924;2023-03-26T17:55:06;19.88;;;8.80;;
49458;SDS011;35354;51.296;16.924;2023-03-26T18:00:07;34.05;;;14.00;;
49458;SDS011;35354;51.296;16.924;2023-03-26T18:02:42;60.35;;;28.95;;
49458;SDS011;35354;51.296;16.924;2023-03-26T18:05:14;66.25;;;36.20;;
49458;SDS011;35354;51.296;16.924;2023-03-26T18:07:55;74.05;;;41.72;;
49458;SDS011;35354;51.296;16.924;2023-03-26T18:10:59;87.80;;;42.63;;
49458;SDS011;35354;51.296;16.924;2023-03-26T18:16:53;146.85;;;80.80;;
49458;SDS011;35354;51.296;16.924;2023-03-26T18:19:23;88.15;;;53.78;;
49458;SDS011;35354;51.296;16.924;2023-03-26T18:21:51;101.85;;;61.60;;
49458;SDS011;35354;51.296;16.924;2023-03-26T18:26:53;108.07;;;62.88;;
49458;SDS011;35354;51.296;16.924;2023-03-26T18:31:59;118.65;;;68.15;;
49458;SDS011;35354;51.296;16.924;2023-03-26T18:34:34;121.93;;;74.70;;
49458;SDS011;35354;51.296;16.924;2023-03-26T18:39:32;29.75;;;19.15;;
49458;SDS011;35354;51.296;16.924;2023-03-26T18:41:57;30.10;;;19.05;;
49458;SDS011;35354;51.296;16.924;2023-03-26T18:44:24;33.78;;;21.48;;
49458;SDS011;35354;51.296;16.924;2023-03-26T18:46:50;41.75;;;24.98;;
49458;SDS011;35354;51.296;16.924;2023-03-26T18:49:20;50.45;;;28.90;;
49458;SDS011;35354;51.296;16.924;2023-03-26T18:51:47;93.25;;;45.30;;
49458;SDS011;35354;51.296;16.924;2023-03-26T18:54:17;62.25;;;35.55;;
49458;SDS011;35354;51.296;16.924;2023-03-26T18:59:21;38.72;;;24.42;;
49458;SDS011;35354;51.296;16.924;2023-03-26T19:01:58;45.05;;;30.15;;
49458;SDS011;35354;51.296;16.924;2023-03-26T19:04:29;64.82;;;42.92;;
49458;SDS011;35354;51.296;16.924;2023-03-26T19:06:58;88.28;;;54.92;;
49458;SDS011;35354;51.296;16.924;2023-03-26T19:09:25;83.95;;;53.05;;
49458;SDS011;35354;51.296;16.924;2023-03-26T19:11:55;68.85;;;44.15;;
49458;SDS011;35354;51.296;16.924;2023-03-26T19:14:23;89.53;;;54.75;;
49458;SDS011;35354;51.296;16.924;2023-03-26T19:16:51;75.43;;;47.13;;
49458;SDS011;35354;51.296;16.924;2023-03-26T19:19:21;71.53;;;45.08;;
49458;SDS011;35354;51.296;16.924;2023-03-26T19:21:51;65.05;;;41.42;;
49458;SDS011;35354;51.296;16.924;2023-03-26T19:24:18;53.72;;;37.28;;
49458;SDS011;35354;51.296;16.924;2023-03-26T19:26:47;71.63;;;47.70;;
49458;SDS011;35354;51.296;16.924;2023-03-26T19:29:26;59.92;;;40.20;;
49458;SDS011;35354;51.296;16.924;2023-03-26T19:31:59;51.10;;;34.03;;
49458;SDS011;35354;51.296;16.924;2023-03-26T19:34:33;47.00;;;32.30;;
49458;SDS011;35354;51.296;16.924;2023-03-26T19:37:13;38.08;;;26.70;;
49458;SDS011;35354;51.296;16.924;2023-03-26T19:39:49;28.05;;;20.88;;
49458;SDS011;35354;51.296;16.924;2023-03-26T19:42:20;24.90;;;17.52;;
49458;SDS011;35354;51.296;16.924;2023-03-26T19:47:25;19.80;;;13.82;;
49458;SDS011;35354;51.296;16.924;2023-03-26T19:52:43;15.45;;;10.93;;
49458;SDS011;35354;51.296;16.924;2023-03-26T19:55:21;16.95;;;11.13;;
49458;SDS011;35354;51.296;16.924;2023-03-26T19:57:51;15.75;;;11.13;;
49458;SDS011;35354;51.296;16.924;2023-03-26T20:00:16;18.35;;;12.25;;
49458;SDS011;35354;51.296;16.924;2023-03-26T20:02:43;18.05;;;11.15;;
49458;SDS011;35354;51.296;16.924;2023-03-26T20:07:46;15.48;;;11.15;;
49458;SDS011;35354;51.296;16.924;2023-03-26T20:10:14;17.17;;;12.65;;
49458;SDS011;35354;51.296;16.924;2023-03-26T20:12:40;15.32;;;10.63;;
49458;SDS011;35354;51.296;16.924;2023-03-26T20:15:11;15.25;;;10.65;;
49458;SDS011;35354;51.296;16.924;2023-03-26T20:17:44;17.75;;;11.32;;
49458;SDS011;35354;51.296;16.924;2023-03-26T20:20:10;19.10;;;11.52;;
49458;SDS011;35354;51.296;16.924;2023-03-26T20:22:37;17.75;;;11.15;;
49458;SDS011;35354;51.296;16.924;2023-03-26T20:25:16;20.77;;;14.45;;
49458;SDS011;35354;51.296;16.924;2023-03-26T20:27:44;16.92;;;11.50;;
49458;SDS011;35354;51.296;16.924;2023-03-26T20:30:11;19.08;;;11.02;;
49458;SDS011;35354;51.296;16.924;2023-03-26T20:32:37;14.10;;;9.35;;
49458;SDS011;35354;51.296;16.924;2023-03-26T20:37:45;13.10;;;9.55;;